KBHM/BHM METAR and TAF weather

Enter ICAO airport designator
Station Type Date Time Source
KBHM METAR 2019/07/20 20:21 UTC NOAA

KBHM 202021Z 27008KT 6SM -TSRA BR SCT022 BKN038CB OVC080 25/23 A3006 RMK AO2 LTG DSNT N AND NW OCNL LTGIC W-NW TS W-NW MOV NW P0034 T02500228


Station Type Date Time Source
KBHM Decoded METAR 2019/07/20 20:21 UTC NOAA

BIRMINGHAM INT'L AIRPORT, AL, United States (KBHM) 33-34N 086-45W 197M
Jul 20, 2019 - 04:21 PM EDT / 2019.07.20 2021 UTC
Wind: from the W (270 degrees) at 9 MPH (8 KT):0
Visibility: 6 mile(s):0
Sky conditions: overcast
Weather: light rain with thunder; mist; Cumulonimbus clouds, lightning observed
Precipitation last hour: 0.34 inches
Temperature: 77.0 F (25.0 C)
Dew Point: 73.0 F (22.8 C)
Relative Humidity: 87%
Pressure (altimeter): 30.06 in. Hg (1017 hPa)
ob: KBHM 202021Z 27008KT 6SM -TSRA BR SCT022 BKN038CB OVC080 25/23 A3006 RMK AO2 LTG DSNT N AND NW OCNL LTGIC W-NW TS W-NW MOV NW P0034 T02500228
cycle: 20

Station Type Date Time Source
KBHM TAF 2019/07/20 20:46 UTC NOAA

TAF
AMD KBHM 201944Z 2020/2118 21005KT 6SM SHRA VCTS BKN040CB
TEMPO 2020/2021 VRB10G20KT 2SM TSRA BKN035CB
FM210200 21004KT P6SM VCSH BKN050
FM210600 VRB03KT P6SM SCT015 BKN150
FM211500 18004KT P6SM VCSH BKN040

Example: see airport list